sensor_id;sensor_type;location;lat;lon;timestamp;P1;durP1;ratioP1;P2;durP2;ratioP2
55146;SDS011;41039;49.830;23.988;2022-12-07T00:01:57;19.73;;;10.82;;
55146;SDS011;41039;49.830;23.988;2022-12-07T00:04:22;21.73;;;11.23;;
55146;SDS011;41039;49.830;23.988;2022-12-07T00:06:50;23.55;;;10.95;;
55146;SDS011;41039;49.830;23.988;2022-12-07T00:09:16;19.30;;;10.70;;
55146;SDS011;41039;49.830;23.988;2022-12-07T00:11:41;22.70;;;12.15;;
55146;SDS011;41039;49.830;23.988;2022-12-07T00:14:07;25.98;;;14.15;;
55146;SDS011;41039;49.830;23.988;2022-12-07T00:16:34;26.33;;;14.18;;
55146;SDS011;41039;49.830;23.988;2022-12-07T00:19:00;21.15;;;11.82;;
55146;SDS011;41039;49.830;23.988;2022-12-07T00:21:29;21.27;;;10.68;;
55146;SDS011;41039;49.830;23.988;2022-12-07T00:23:55;17.90;;;9.30;;
55146;SDS011;41039;49.830;23.988;2022-12-07T00:26:31;17.33;;;8.10;;
55146;SDS011;41039;49.830;23.988;2022-12-07T00:28:58;15.73;;;8.43;;
55146;SDS011;41039;49.830;23.988;2022-12-07T00:31:25;18.63;;;9.40;;
55146;SDS011;41039;49.830;23.988;2022-12-07T00:33:51;18.00;;;9.13;;
55146;SDS011;41039;49.830;23.988;2022-12-07T00:36:17;18.48;;;9.43;;
55146;SDS011;41039;49.830;23.988;2022-12-07T00:38:42;18.30;;;9.43;;
55146;SDS011;41039;49.830;23.988;2022-12-07T00:41:11;17.30;;;9.32;;
55146;SDS011;41039;49.830;23.988;2022-12-07T00:43:37;20.77;;;11.77;;
55146;SDS011;41039;49.830;23.988;2022-12-07T00:46:02;17.35;;;9.07;;
55146;SDS011;41039;49.830;23.988;2022-12-07T00:48:27;21.63;;;11.05;;
55146;SDS011;41039;49.830;23.988;2022-12-07T00:50:53;16.55;;;8.70;;
55146;SDS011;41039;49.830;23.988;2022-12-07T00:53:18;16.08;;;8.70;;
55146;SDS011;41039;49.830;23.988;2022-12-07T00:55:44;19.58;;;9.73;;
55146;SDS011;41039;49.830;23.988;2022-12-07T00:58:09;18.42;;;9.38;;
55146;SDS011;41039;49.830;23.988;2022-12-07T01:00:35;19.13;;;9.90;;
55146;SDS011;41039;49.830;23.988;2022-12-07T01:03:02;18.38;;;8.93;;
55146;SDS011;41039;49.830;23.988;2022-12-07T01:05:27;21.20;;;10.88;;
55146;SDS011;41039;49.830;23.988;2022-12-07T01:07:52;18.85;;;10.77;;
55146;SDS011;41039;49.830;23.988;2022-12-07T01:10:18;18.52;;;9.52;;
55146;SDS011;41039;49.830;23.988;2022-12-07T01:12:43;20.40;;;10.45;;
55146;SDS011;41039;49.830;23.988;2022-12-07T01:15:08;19.35;;;9.65;;
55146;SDS011;41039;49.830;23.988;2022-12-07T01:17:34;17.98;;;9.85;;
55146;SDS011;41039;49.830;23.988;2022-12-07T01:19:59;19.23;;;10.25;;
55146;SDS011;41039;49.830;23.988;2022-12-07T01:22:24;17.63;;;9.07;;
55146;SDS011;41039;49.830;23.988;2022-12-07T01:24:50;19.48;;;9.48;;
55146;SDS011;41039;49.830;23.988;2022-12-07T01:27:15;17.27;;;9.15;;
55146;SDS011;41039;49.830;23.988;2022-12-07T01:29:40;16.45;;;8.90;;
55146;SDS011;41039;49.830;23.988;2022-12-07T01:32:06;17.75;;;9.80;;
55146;SDS011;41039;49.830;23.988;2022-12-07T01:34:31;17.45;;;8.98;;
55146;SDS011;41039;49.830;23.988;2022-12-07T01:36:56;18.88;;;10.18;;
55146;SDS011;41039;49.830;23.988;2022-12-07T01:39:22;20.67;;;10.38;;
55146;SDS011;41039;49.830;23.988;2022-12-07T01:41:47;21.92;;;10.80;;
55146;SDS011;41039;49.830;23.988;2022-12-07T01:44:25;21.77;;;11.95;;
55146;SDS011;41039;49.830;23.988;2022-12-07T01:46:52;22.80;;;11.88;;
55146;SDS011;41039;49.830;23.988;2022-12-07T01:49:21;22.02;;;12.07;;
55146;SDS011;41039;49.830;23.988;2022-12-07T01:51:48;23.52;;;12.85;;
55146;SDS011;41039;49.830;23.988;2022-12-07T01:54:14;25.98;;;12.93;;
55146;SDS011;41039;49.830;23.988;2022-12-07T01:56:41;30.50;;;14.88;;
55146;SDS011;41039;49.830;23.988;2022-12-07T01:59:08;28.80;;;13.90;;
55146;SDS011;41039;49.830;23.988;2022-12-07T02:01:34;25.00;;;12.20;;
55146;SDS011;41039;49.830;23.988;2022-12-07T02:03:59;29.88;;;14.15;;
55146;SDS011;41039;49.830;23.988;2022-12-07T02:06:25;28.73;;;14.35;;
55146;SDS011;41039;49.830;23.988;2022-12-07T02:08:50;28.10;;;13.50;;
55146;SDS011;41039;49.830;23.988;2022-12-07T02:11:16;31.67;;;14.55;;
55146;SDS011;41039;49.830;23.988;2022-12-07T02:13:42;29.30;;;14.48;;
55146;SDS011;41039;49.830;23.988;2022-12-07T02:26:02;30.10;;;13.45;;
55146;SDS011;41039;49.830;23.988;2022-12-07T02:28:34;32.20;;;14.77;;
55146;SDS011;41039;49.830;23.988;2022-12-07T02:31:12;28.10;;;14.23;;
55146;SDS011;41039;49.830;23.988;2022-12-07T02:33:43;31.00;;;14.43;;
55146;SDS011;41039;49.830;23.988;2022-12-07T02:36:11;30.17;;;14.35;;
55146;SDS011;41039;49.830;23.988;2022-12-07T02:38:45;24.60;;;13.63;;
55146;SDS011;41039;49.830;23.988;2022-12-07T02:41:15;26.05;;;13.55;;
55146;SDS011;41039;49.830;23.988;2022-12-07T02:48:51;27.70;;;13.85;;
55146;SDS011;41039;49.830;23.988;2022-12-07T02:51:17;27.70;;;14.07;;
55146;SDS011;41039;49.830;23.988;2022-12-07T02:53:43;26.13;;;14.00;;
55146;SDS011;41039;49.830;23.988;2022-12-07T03:03:36;28.08;;;14.10;;
55146;SDS011;41039;49.830;23.988;2022-12-07T03:06:15;30.73;;;13.80;;
55146;SDS011;41039;49.830;23.988;2022-12-07T03:11:10;29.42;;;14.00;;
55146;SDS011;41039;49.830;23.988;2022-12-07T03:13:42;26.80;;;13.75;;
55146;SDS011;41039;49.830;23.988;2022-12-07T03:16:20;28.33;;;13.63;;
55146;SDS011;41039;49.830;23.988;2022-12-07T03:21:16;26.73;;;13.60;;
55146;SDS011;41039;49.830;23.988;2022-12-07T03:23:43;24.63;;;12.73;;
55146;SDS011;41039;49.830;23.988;2022-12-07T03:26:10;24.20;;;12.43;;
55146;SDS011;41039;49.830;23.988;2022-12-07T03:28:38;26.63;;;13.40;;
55146;SDS011;41039;49.830;23.988;2022-12-07T03:31:07;25.08;;;12.68;;
55146;SDS011;41039;49.830;23.988;2022-12-07T03:33:38;25.50;;;12.27;;
55146;SDS011;41039;49.830;23.988;2022-12-07T03:36:05;26.42;;;12.00;;
55146;SDS011;41039;49.830;23.988;2022-12-07T03:38:40;20.95;;;12.40;;
55146;SDS011;41039;49.830;23.988;2022-12-07T03:41:27;23.58;;;11.95;;
55146;SDS011;41039;49.830;23.988;2022-12-07T03:43:54;24.58;;;12.40;;
55146;SDS011;41039;49.830;23.988;2022-12-07T03:51:20;26.83;;;13.23;;
55146;SDS011;41039;49.830;23.988;2022-12-07T03:54:34;29.02;;;13.65;;
55146;SDS011;41039;49.830;23.988;2022-12-07T03:56:33;27.00;;;13.98;;
55146;SDS011;41039;49.830;23.988;2022-12-07T03:58:58;29.77;;;15.25;;
55146;SDS011;41039;49.830;23.988;2022-12-07T04:01:23;31.42;;;15.18;;
55146;SDS011;41039;49.830;23.988;2022-12-07T04:03:49;33.83;;;16.67;;
55146;SDS011;41039;49.830;23.988;2022-12-07T04:06:14;26.05;;;13.82;;
55146;SDS011;41039;49.830;23.988;2022-12-07T04:08:40;28.00;;;15.32;;
55146;SDS011;41039;49.830;23.988;2022-12-07T04:11:05;32.55;;;15.98;;
55146;SDS011;41039;49.830;23.988;2022-12-07T04:13:30;42.33;;;20.10;;
55146;SDS011;41039;49.830;23.988;2022-12-07T04:16:15;49.65;;;24.38;;
55146;SDS011;41039;49.830;23.988;2022-12-07T04:18:40;41.10;;;21.25;;
55146;SDS011;41039;49.830;23.988;2022-12-07T04:21:06;51.22;;;25.50;;
55146;SDS011;41039;49.830;23.988;2022-12-07T04:23:31;50.00;;;22.30;;
55146;SDS011;41039;49.830;23.988;2022-12-07T04:25:56;36.95;;;18.92;;
55146;SDS011;41039;49.830;23.988;2022-12-07T04:28:21;31.08;;;16.27;;
55146;SDS011;41039;49.830;23.988;2022-12-07T04:30:47;29.90;;;13.80;;
55146;SDS011;41039;49.830;23.988;2022-12-07T04:33:12;30.90;;;14.25;;
55146;SDS011;41039;49.830;23.988;2022-12-07T04:35:37;27.23;;;14.23;;
55146;SDS011;41039;49.830;23.988;2022-12-07T04:38:02;26.77;;;12.75;;
55146;SDS011;41039;49.830;23.988;2022-12-07T04:40:27;26.63;;;14.05;;
55146;SDS011;41039;49.830;23.988;2022-12-07T04:42:53;29.40;;;15.43;;
55146;SDS011;41039;49.830;23.988;2022-12-07T04:45:18;31.02;;;15.13;;
55146;SDS011;41039;49.830;23.988;2022-12-07T04:47:43;27.63;;;14.05;;
55146;SDS011;41039;49.830;23.988;2022-12-07T04:50:09;25.13;;;14.23;;
55146;SDS011;41039;49.830;23.988;2022-12-07T04:52:34;30.92;;;15.85;;
55146;SDS011;41039;49.830;23.988;2022-12-07T04:54:59;33.72;;;16.33;;
55146;SDS011;41039;49.830;23.988;2022-12-07T04:57:25;28.85;;;15.02;;
55146;SDS011;41039;49.830;23.988;2022-12-07T04:59:50;28.05;;;15.10;;
55146;SDS011;41039;49.830;23.988;2022-12-07T05:02:15;26.65;;;14.30;;
55146;SDS011;41039;49.830;23.988;2022-12-07T05:04:40;28.98;;;15.27;;
55146;SDS011;41039;49.830;23.988;2022-12-07T05:07:06;26.55;;;13.80;;
55146;SDS011;41039;49.830;23.988;2022-12-07T05:09:31;27.05;;;13.27;;
55146;SDS011;41039;49.830;23.988;2022-12-07T05:11:56;29.15;;;14.23;;
55146;SDS011;41039;49.830;23.988;2022-12-07T05:14:21;26.90;;;14.52;;
55146;SDS011;41039;49.830;23.988;2022-12-07T05:16:48;25.60;;;13.60;;
55146;SDS011;41039;49.830;23.988;2022-12-07T05:19:14;25.92;;;13.88;;
55146;SDS011;41039;49.830;23.988;2022-12-07T05:21:39;26.63;;;12.77;;
55146;SDS011;41039;49.830;23.988;2022-12-07T05:24:05;27.75;;;14.20;;
55146;SDS011;41039;49.830;23.988;2022-12-07T05:26:30;25.50;;;12.02;;
55146;SDS011;41039;49.830;23.988;2022-12-07T05:28:56;29.90;;;15.77;;
55146;SDS011;41039;49.830;23.988;2022-12-07T05:31:21;33.03;;;16.15;;
55146;SDS011;41039;49.830;23.988;2022-12-07T05:33:47;32.28;;;16.38;;
55146;SDS011;41039;49.830;23.988;2022-12-07T05:36:12;32.25;;;15.23;;
55146;SDS011;41039;49.830;23.988;2022-12-07T05:38:37;33.28;;;16.42;;
55146;SDS011;41039;49.830;23.988;2022-12-07T05:41:03;32.72;;;16.40;;
55146;SDS011;41039;49.830;23.988;2022-12-07T05:43:29;30.70;;;15.90;;
55146;SDS011;41039;49.830;23.988;2022-12-07T05:45:54;33.30;;;17.27;;
55146;SDS011;41039;49.830;23.988;2022-12-07T05:48:19;31.20;;;16.08;;
55146;SDS011;41039;49.830;23.988;2022-12-07T05:50:47;34.03;;;16.35;;
55146;SDS011;41039;49.830;23.988;2022-12-07T05:53:12;36.38;;;17.02;;
55146;SDS011;41039;49.830;23.988;2022-12-07T05:55:37;35.60;;;15.88;;
55146;SDS011;41039;49.830;23.988;2022-12-07T05:58:02;34.65;;;18.05;;
55146;SDS011;41039;49.830;23.988;2022-12-07T06:03:11;30.87;;;14.37;;
55146;SDS011;41039;49.830;23.988;2022-12-07T06:05:37;26.80;;;14.93;;
55146;SDS011;41039;49.830;23.988;2022-12-07T06:08:02;31.33;;;14.23;;
55146;SDS011;41039;49.830;23.988;2022-12-07T06:10:27;27.50;;;13.80;;
55146;SDS011;41039;49.830;23.988;2022-12-07T06:12:52;28.58;;;14.93;;
55146;SDS011;41039;49.830;23.988;2022-12-07T06:15:18;26.30;;;13.38;;
55146;SDS011;41039;49.830;23.988;2022-12-07T06:17:43;26.73;;;15.07;;
55146;SDS011;41039;49.830;23.988;2022-12-07T06:20:08;27.10;;;14.07;;
55146;SDS011;41039;49.830;23.988;2022-12-07T06:22:33;26.25;;;13.15;;
55146;SDS011;41039;49.830;23.988;2022-12-07T06:24:59;27.90;;;15.32;;
55146;SDS011;41039;49.830;23.988;2022-12-07T06:27:24;20.63;;;10.65;;
55146;SDS011;41039;49.830;23.988;2022-12-07T06:29:49;22.90;;;11.88;;
55146;SDS011;41039;49.830;23.988;2022-12-07T06:32:14;24.33;;;13.40;;
55146;SDS011;41039;49.830;23.988;2022-12-07T06:34:40;24.30;;;12.05;;
55146;SDS011;41039;49.830;23.988;2022-12-07T06:37:05;25.85;;;13.77;;
55146;SDS011;41039;49.830;23.988;2022-12-07T06:39:30;23.05;;;12.70;;
55146;SDS011;41039;49.830;23.988;2022-12-07T06:41:56;24.00;;;14.25;;
55146;SDS011;41039;49.830;23.988;2022-12-07T06:44:22;28.90;;;15.40;;
55146;SDS011;41039;49.830;23.988;2022-12-07T06:46:48;29.05;;;14.63;;
55146;SDS011;41039;49.830;23.988;2022-12-07T06:49:13;29.60;;;14.13;;
55146;SDS011;41039;49.830;23.988;2022-12-07T06:51:38;25.60;;;15.05;;
55146;SDS011;41039;49.830;23.988;2022-12-07T06:54:09;28.67;;;16.48;;
55146;SDS011;41039;49.830;23.988;2022-12-07T06:56:34;30.75;;;15.65;;
55146;SDS011;41039;49.830;23.988;2022-12-07T06:58:59;26.98;;;16.02;;
55146;SDS011;41039;49.830;23.988;2022-12-07T07:01:25;26.67;;;14.80;;
55146;SDS011;41039;49.830;23.988;2022-12-07T07:03:50;30.02;;;15.93;;
55146;SDS011;41039;49.830;23.988;2022-12-07T07:06:15;29.65;;;16.77;;
55146;SDS011;41039;49.830;23.988;2022-12-07T07:08:41;28.50;;;15.00;;
55146;SDS011;41039;49.830;23.988;2022-12-07T07:11:06;32.88;;;16.88;;
55146;SDS011;41039;49.830;23.988;2022-12-07T07:13:32;27.25;;;16.45;;
55146;SDS011;41039;49.830;23.988;2022-12-07T07:15:58;26.48;;;15.30;;
55146;SDS011;41039;49.830;23.988;2022-12-07T07:18:23;29.48;;;14.18;;
55146;SDS011;41039;49.830;23.988;2022-12-07T07:20:49;30.02;;;14.98;;
55146;SDS011;41039;49.830;23.988;2022-12-07T07:23:15;31.63;;;18.40;;
55146;SDS011;41039;49.830;23.988;2022-12-07T07:25:40;29.17;;;16.25;;
55146;SDS011;41039;49.830;23.988;2022-12-07T07:28:05;28.30;;;14.60;;
55146;SDS011;41039;49.830;23.988;2022-12-07T07:30:30;27.33;;;15.27;;
55146;SDS011;41039;49.830;23.988;2022-12-07T07:32:56;20.50;;;11.30;;
55146;SDS011;41039;49.830;23.988;2022-12-07T07:35:22;21.77;;;12.25;;
55146;SDS011;41039;49.830;23.988;2022-12-07T07:37:47;23.13;;;12.32;;
55146;SDS011;41039;49.830;23.988;2022-12-07T07:40:12;24.30;;;11.35;;
55146;SDS011;41039;49.830;23.988;2022-12-07T07:42:38;21.15;;;12.43;;
55146;SDS011;41039;49.830;23.988;2022-12-07T07:45:03;18.92;;;10.98;;
55146;SDS011;41039;49.830;23.988;2022-12-07T07:47:29;18.90;;;11.25;;
55146;SDS011;41039;49.830;23.988;2022-12-07T07:49:54;20.05;;;11.25;;
55146;SDS011;41039;49.830;23.988;2022-12-07T07:52:20;20.50;;;11.85;;
55146;SDS011;41039;49.830;23.988;2022-12-07T07:54:45;18.67;;;11.07;;
55146;SDS011;41039;49.830;23.988;2022-12-07T07:57:10;21.38;;;12.15;;
55146;SDS011;41039;49.830;23.988;2022-12-07T07:59:35;22.63;;;12.60;;
55146;SDS011;41039;49.830;23.988;2022-12-07T08:02:01;19.38;;;11.63;;
55146;SDS011;41039;49.830;23.988;2022-12-07T08:04:26;19.77;;;11.52;;
55146;SDS011;41039;49.830;23.988;2022-12-07T08:06:51;21.08;;;10.93;;
55146;SDS011;41039;49.830;23.988;2022-12-07T08:09:16;22.98;;;12.93;;
55146;SDS011;41039;49.830;23.988;2022-12-07T08:11:42;19.98;;;11.25;;
55146;SDS011;41039;49.830;23.988;2022-12-07T08:14:07;25.20;;;13.60;;
55146;SDS011;41039;49.830;23.988;2022-12-07T08:16:32;27.77;;;13.13;;
55146;SDS011;41039;49.830;23.988;2022-12-07T08:18:57;22.63;;;12.38;;
55146;SDS011;41039;49.830;23.988;2022-12-07T08:21:23;22.38;;;12.75;;
55146;SDS011;41039;49.830;23.988;2022-12-07T08:23:48;24.52;;;13.07;;
55146;SDS011;41039;49.830;23.988;2022-12-07T08:26:14;22.23;;;12.30;;
55146;SDS011;41039;49.830;23.988;2022-12-07T08:28:40;23.75;;;13.60;;
55146;SDS011;41039;49.830;23.988;2022-12-07T08:31:06;25.63;;;14.10;;
55146;SDS011;41039;49.830;23.988;2022-12-07T08:33:32;22.33;;;12.68;;
55146;SDS011;41039;49.830;23.988;2022-12-07T08:36:01;20.27;;;12.30;;
55146;SDS011;41039;49.830;23.988;2022-12-07T08:38:26;18.83;;;11.95;;
55146;SDS011;41039;49.830;23.988;2022-12-07T08:40:58;21.40;;;13.63;;
55146;SDS011;41039;49.830;23.988;2022-12-07T08:43:24;21.58;;;13.07;;
55146;SDS011;41039;49.830;23.988;2022-12-07T08:45:51;16.45;;;10.30;;
55146;SDS011;41039;49.830;23.988;2022-12-07T08:48:18;18.48;;;11.35;;
55146;SDS011;41039;49.830;23.988;2022-12-07T08:50:47;16.25;;;10.57;;
55146;SDS011;41039;49.830;23.988;2022-12-07T08:53:12;21.83;;;12.68;;
55146;SDS011;41039;49.830;23.988;2022-12-07T08:55:37;18.70;;;11.57;;
55146;SDS011;41039;49.830;23.988;2022-12-07T08:58:03;17.10;;;11.63;;
55146;SDS011;41039;49.830;23.988;2022-12-07T09:00:28;18.70;;;10.95;;
55146;SDS011;41039;49.830;23.988;2022-12-07T09:02:53;18.65;;;10.20;;
55146;SDS011;41039;49.830;23.988;2022-12-07T09:05:19;19.00;;;11.70;;
55146;SDS011;41039;49.830;23.988;2022-12-07T09:07:45;21.95;;;12.30;;
55146;SDS011;41039;49.830;23.988;2022-12-07T09:10:11;21.70;;;12.45;;
55146;SDS011;41039;49.830;23.988;2022-12-07T09:12:36;19.58;;;12.50;;
55146;SDS011;41039;49.830;23.988;2022-12-07T09:15:02;23.25;;;14.02;;
55146;SDS011;41039;49.830;23.988;2022-12-07T09:17:27;18.35;;;11.00;;
55146;SDS011;41039;49.830;23.988;2022-12-07T09:19:56;19.38;;;12.02;;
55146;SDS011;41039;49.830;23.988;2022-12-07T09:22:21;18.20;;;10.82;;
55146;SDS011;41039;49.830;23.988;2022-12-07T09:24:46;21.85;;;11.10;;
55146;SDS011;41039;49.830;23.988;2022-12-07T09:27:12;18.83;;;10.65;;
55146;SDS011;41039;49.830;23.988;2022-12-07T09:29:37;19.23;;;11.60;;
55146;SDS011;41039;49.830;23.988;2022-12-07T09:32:02;17.25;;;10.65;;
55146;SDS011;41039;49.830;23.988;2022-12-07T09:34:30;20.42;;;11.27;;
55146;SDS011;41039;49.830;23.988;2022-12-07T09:36:55;17.70;;;9.93;;
55146;SDS011;41039;49.830;23.988;2022-12-07T09:39:20;17.75;;;10.43;;
55146;SDS011;41039;49.830;23.988;2022-12-07T09:41:46;17.85;;;9.77;;
55146;SDS011;41039;49.830;23.988;2022-12-07T09:44:12;16.25;;;9.50;;
55146;SDS011;41039;49.830;23.988;2022-12-07T09:46:39;16.65;;;10.30;;
55146;SDS011;41039;49.830;23.988;2022-12-07T09:49:05;13.02;;;8.88;;
55146;SDS011;41039;49.830;23.988;2022-12-07T09:51:34;17.25;;;9.00;;
55146;SDS011;41039;49.830;23.988;2022-12-07T09:54:00;14.65;;;9.20;;
55146;SDS011;41039;49.830;23.988;2022-12-07T09:56:25;14.95;;;9.40;;
55146;SDS011;41039;49.830;23.988;2022-12-07T09:58:55;15.35;;;9.15;;
55146;SDS011;41039;49.830;23.988;2022-12-07T10:01:21;15.65;;;8.73;;
55146;SDS011;41039;49.830;23.988;2022-12-07T10:03:54;12.95;;;8.45;;
55146;SDS011;41039;49.830;23.988;2022-12-07T10:06:20;14.48;;;9.15;;
55146;SDS011;41039;49.830;23.988;2022-12-07T10:08:45;14.85;;;8.68;;
55146;SDS011;41039;49.830;23.988;2022-12-07T10:11:11;14.13;;;8.85;;
55146;SDS011;41039;49.830;23.988;2022-12-07T10:16:02;15.15;;;9.00;;
55146;SDS011;41039;49.830;23.988;2022-12-07T10:18:34;16.50;;;9.27;;
55146;SDS011;41039;49.830;23.988;2022-12-07T10:21:16;14.95;;;8.98;;
55146;SDS011;41039;49.830;23.988;2022-12-07T10:23:43;17.42;;;9.55;;
55146;SDS011;41039;49.830;23.988;2022-12-07T10:26:27;15.65;;;8.35;;
55146;SDS011;41039;49.830;23.988;2022-12-07T10:28:54;16.27;;;9.95;;
55146;SDS011;41039;49.830;23.988;2022-12-07T10:31:20;12.15;;;8.68;;
55146;SDS011;41039;49.830;23.988;2022-12-07T10:36:20;14.40;;;9.40;;
55146;SDS011;41039;49.830;23.988;2022-12-07T10:38:47;15.60;;;9.38;;
55146;SDS011;41039;49.830;23.988;2022-12-07T10:41:13;13.80;;;8.80;;
55146;SDS011;41039;49.830;23.988;2022-12-07T10:43:46;15.57;;;8.73;;
55146;SDS011;41039;49.830;23.988;2022-12-07T11:03:58;28.10;;;15.35;;
55146;SDS011;41039;49.830;23.988;2022-12-07T11:06:28;22.48;;;13.20;;
55146;SDS011;41039;49.830;23.988;2022-12-07T11:11:41;21.95;;;12.75;;
55146;SDS011;41039;49.830;23.988;2022-12-07T11:14:12;19.73;;;12.07;;
55146;SDS011;41039;49.830;23.988;2022-12-07T11:16:57;18.33;;;11.38;;
55146;SDS011;41039;49.830;23.988;2022-12-07T11:19:28;18.17;;;10.55;;
55146;SDS011;41039;49.830;23.988;2022-12-07T11:22:17;15.23;;;9.95;;
55146;SDS011;41039;49.830;23.988;2022-12-07T11:27:36;15.50;;;9.80;;
55146;SDS011;41039;49.830;23.988;2022-12-07T11:35:11;14.25;;;8.95;;
55146;SDS011;41039;49.830;23.988;2022-12-07T11:37:40;13.05;;;8.77;;
55146;SDS011;41039;49.830;23.988;2022-12-07T11:40:25;14.00;;;9.23;;
55146;SDS011;41039;49.830;23.988;2022-12-07T11:42:58;11.73;;;7.85;;
55146;SDS011;41039;49.830;23.988;2022-12-07T11:45:34;13.35;;;7.95;;
55146;SDS011;41039;49.830;23.988;2022-12-07T11:48:03;15.52;;;8.23;;
55146;SDS011;41039;49.830;23.988;2022-12-07T11:58:57;15.60;;;9.32;;
55146;SDS011;41039;49.830;23.988;2022-12-07T12:06:28;14.90;;;9.73;;
55146;SDS011;41039;49.830;23.988;2022-12-07T12:14:12;19.10;;;10.85;;
55146;SDS011;41039;49.830;23.988;2022-12-07T12:17:01;14.07;;;9.38;;
55146;SDS011;41039;49.830;23.988;2022-12-07T12:22:16;17.10;;;10.63;;
55146;SDS011;41039;49.830;23.988;2022-12-07T12:24:42;17.35;;;9.07;;
55146;SDS011;41039;49.830;23.988;2022-12-07T12:27:09;19.30;;;10.13;;
55146;SDS011;41039;49.830;23.988;2022-12-07T12:32:04;14.05;;;8.55;;
55146;SDS011;41039;49.830;23.988;2022-12-07T12:37:38;12.63;;;7.85;;
55146;SDS011;41039;49.830;23.988;2022-12-07T12:45:29;10.98;;;7.22;;
55146;SDS011;41039;49.830;23.988;2022-12-07T12:47:56;10.38;;;6.88;;
55146;SDS011;41039;49.830;23.988;2022-12-07T12:50:26;10.98;;;7.13;;
55146;SDS011;41039;49.830;23.988;2022-12-07T12:52:55;10.10;;;6.22;;
55146;SDS011;41039;49.830;23.988;2022-12-07T12:55:24;11.20;;;6.47;;
55146;SDS011;41039;49.830;23.988;2022-12-07T13:06:20;12.82;;;7.45;;
55146;SDS011;41039;49.830;23.988;2022-12-07T13:08:57;10.18;;;6.40;;
55146;SDS011;41039;49.830;23.988;2022-12-07T13:11:34;8.85;;;5.85;;
55146;SDS011;41039;49.830;23.988;2022-12-07T13:16:44;8.88;;;5.78;;
55146;SDS011;41039;49.830;23.988;2022-12-07T13:21:52;9.10;;;5.70;;
55146;SDS011;41039;49.830;23.988;2022-12-07T13:24:18;9.23;;;5.47;;
55146;SDS011;41039;49.830;23.988;2022-12-07T13:26:43;8.07;;;5.55;;
55146;SDS011;41039;49.830;23.988;2022-12-07T13:31:35;9.60;;;5.90;;
55146;SDS011;41039;49.830;23.988;2022-12-07T13:34:05;8.85;;;5.65;;
55146;SDS011;41039;49.830;23.988;2022-12-07T13:36:34;7.78;;;5.25;;
55146;SDS011;41039;49.830;23.988;2022-12-07T13:39:16;9.88;;;5.90;;
55146;SDS011;41039;49.830;23.988;2022-12-07T13:41:42;9.48;;;5.57;;
55146;SDS011;41039;49.830;23.988;2022-12-07T13:44:09;10.23;;;6.22;;
55146;SDS011;41039;49.830;23.988;2022-12-07T13:49:32;10.23;;;6.32;;
55146;SDS011;41039;49.830;23.988;2022-12-07T13:54:59;9.80;;;6.60;;
55146;SDS011;41039;49.830;23.988;2022-12-07T13:57:25;10.68;;;5.88;;
55146;SDS011;41039;49.830;23.988;2022-12-07T13:59:51;11.20;;;6.07;;
55146;SDS011;41039;49.830;23.988;2022-12-07T14:02:21;9.18;;;6.30;;
55146;SDS011;41039;49.830;23.988;2022-12-07T14:04:47;10.45;;;5.85;;
55146;SDS011;41039;49.830;23.988;2022-12-07T14:07:23;10.77;;;6.32;;
55146;SDS011;41039;49.830;23.988;2022-12-07T14:10:05;9.90;;;5.80;;
55146;SDS011;41039;49.830;23.988;2022-12-07T14:12:31;8.10;;;5.80;;
55146;SDS011;41039;49.830;23.988;2022-12-07T14:14:57;12.63;;;7.80;;
55146;SDS011;41039;49.830;23.988;2022-12-07T14:17:24;9.95;;;6.32;;
55146;SDS011;41039;49.830;23.988;2022-12-07T14:19:51;9.15;;;5.55;;
55146;SDS011;41039;49.830;23.988;2022-12-07T14:24:58;7.53;;;4.97;;
55146;SDS011;41039;49.830;23.988;2022-12-07T14:27:24;10.35;;;6.85;;
55146;SDS011;41039;49.830;23.988;2022-12-07T14:29:55;15.48;;;9.73;;
55146;SDS011;41039;49.830;23.988;2022-12-07T14:32:22;15.93;;;9.77;;
55146;SDS011;41039;49.830;23.988;2022-12-07T14:34:53;9.50;;;5.45;;
55146;SDS011;41039;49.830;23.988;2022-12-07T14:37:18;8.48;;;5.03;;
55146;SDS011;41039;49.830;23.988;2022-12-07T14:39:43;8.50;;;4.80;;
55146;SDS011;41039;49.830;23.988;2022-12-07T14:42:08;7.45;;;4.60;;
55146;SDS011;41039;49.830;23.988;2022-12-07T14:44:34;6.25;;;3.70;;
55146;SDS011;41039;49.830;23.988;2022-12-07T14:46:59;10.25;;;4.50;;
55146;SDS011;41039;49.830;23.988;2022-12-07T14:49:24;7.75;;;5.00;;
55146;SDS011;41039;49.830;23.988;2022-12-07T14:51:49;8.00;;;4.20;;
55146;SDS011;41039;49.830;23.988;2022-12-07T14:54:18;6.35;;;3.90;;
55146;SDS011;41039;49.830;23.988;2022-12-07T14:56:44;5.88;;;3.63;;
55146;SDS011;41039;49.830;23.988;2022-12-07T14:59:10;5.88;;;3.47;;
55146;SDS011;41039;49.830;23.988;2022-12-07T15:01:36;5.63;;;3.50;;
55146;SDS011;41039;49.830;23.988;2022-12-07T15:04:01;4.75;;;3.28;;
55146;SDS011;41039;49.830;23.988;2022-12-07T15:06:26;4.10;;;2.80;;
55146;SDS011;41039;49.830;23.988;2022-12-07T15:08:52;4.10;;;3.08;;
55146;SDS011;41039;49.830;23.988;2022-12-07T15:11:17;7.47;;;4.53;;
55146;SDS011;41039;49.830;23.988;2022-12-07T15:13:43;7.78;;;4.25;;
55146;SDS011;41039;49.830;23.988;2022-12-07T15:16:27;7.22;;;4.30;;
55146;SDS011;41039;49.830;23.988;2022-12-07T15:18:52;8.07;;;3.85;;
55146;SDS011;41039;49.830;23.988;2022-12-07T15:21:17;7.47;;;4.50;;
55146;SDS011;41039;49.830;23.988;2022-12-07T15:23:43;8.32;;;4.25;;
55146;SDS011;41039;49.830;23.988;2022-12-07T15:26:10;6.60;;;4.18;;
55146;SDS011;41039;49.830;23.988;2022-12-07T15:28:36;6.40;;;3.75;;
55146;SDS011;41039;49.830;23.988;2022-12-07T15:31:01;7.00;;;4.82;;
55146;SDS011;41039;49.830;23.988;2022-12-07T15:33:26;6.50;;;4.25;;
55146;SDS011;41039;49.830;23.988;2022-12-07T15:35:51;6.20;;;3.90;;
55146;SDS011;41039;49.830;23.988;2022-12-07T15:38:17;6.10;;;3.88;;
55146;SDS011;41039;49.830;23.988;2022-12-07T15:40:42;7.97;;;4.60;;
55146;SDS011;41039;49.830;23.988;2022-12-07T15:43:10;5.95;;;3.60;;
55146;SDS011;41039;49.830;23.988;2022-12-07T15:45:55;7.05;;;4.57;;
55146;SDS011;41039;49.830;23.988;2022-12-07T15:48:20;6.18;;;3.95;;
55146;SDS011;41039;49.830;23.988;2022-12-07T15:50:46;8.02;;;4.50;;
55146;SDS011;41039;49.830;23.988;2022-12-07T15:53:11;7.65;;;5.32;;
55146;SDS011;41039;49.830;23.988;2022-12-07T15:55:38;7.15;;;4.45;;
55146;SDS011;41039;49.830;23.988;2022-12-07T15:58:03;6.82;;;4.40;;
55146;SDS011;41039;49.830;23.988;2022-12-07T16:00:29;11.30;;;6.60;;
55146;SDS011;41039;49.830;23.988;2022-12-07T16:02:54;8.43;;;4.97;;
55146;SDS011;41039;49.830;23.988;2022-12-07T16:05:19;7.60;;;4.75;;
55146;SDS011;41039;49.830;23.988;2022-12-07T16:07:44;8.48;;;4.85;;
55146;SDS011;41039;49.830;23.988;2022-12-07T16:10:11;6.85;;;5.28;;
55146;SDS011;41039;49.830;23.988;2022-12-07T16:12:36;7.80;;;5.13;;
55146;SDS011;41039;49.830;23.988;2022-12-07T16:15:02;8.68;;;5.85;;
55146;SDS011;41039;49.830;23.988;2022-12-07T16:17:27;11.55;;;5.63;;
55146;SDS011;41039;49.830;23.988;2022-12-07T16:19:52;9.63;;;6.50;;
55146;SDS011;41039;49.830;23.988;2022-12-07T16:22:18;8.90;;;6.22;;